KAHN/AHN METAR and TAF weather

Enter ICAO airport designator
Station Type Date Time Source
KAHN METAR 2022/07/01 00:51 UTC NOAA

KAHN 010051Z AUTO 00000KT 10SM CLR 28/19 A3015 RMK AO2 SLP200 T02780194


Station Type Date Time Source
KAHN Decoded METAR 2022/07/01 00:51 UTC NOAA

ATHENS BEN EPPS AIRPORT, GA, United States (KAHN) 33-57N 083-20W 244M
Jun 30, 2022 - 08:51 PM EDT / 2022.07.01 0051 UTC
Wind: Calm:0
Visibility: 10 mile(s):0
Sky conditions: clear
Temperature: 82.0 F (27.8 C)
Dew Point: 66.9 F (19.4 C)
Relative Humidity: 60%
Pressure (altimeter): 30.15 in. Hg (1020 hPa)
ob: KAHN 010051Z AUTO 00000KT 10SM CLR 28/19 A3015 RMK AO2 SLP200 T02780194
cycle: 1

Station Type Date Time Source
KAHN TAF 2022/06/30 18:36 UTC NOAA

TAF KAHN 301735Z 3018/0118 11007KT P6SM VCSH SCT025 BKN060
TEMPO 3022/0102 4SM TSRA BR BKN035CB
FM010400 12004KT P6SM SCT015 BKN100
FM011200 VRB03KT P6SM VCSH BKN008
FM011400 10004KT P6SM VCSH BKN025

Example: see airport list